Ikarus — SWEW — position and weather

sailwx.info

Track history (hours):
 
Tides and Currents Weather Stations Pressure Air Temp Water Temp Dewpoint Dewpoint Depression Visibility Wind Speed Wind Dir Waves Ship Positions

Ikarus

Last reported at 2015-Jan-29 05:33 UTC. Time now 2015-Jan-29 06:27 UTC.
Position N 42°06' E 004°30'.

Length 200 m; draft 6.7 m.

Type: Ship. MMSI: 239513000.

Date/timePositionNaut miles runAvg speedWind from/ knotsBaromVisibWave heightAir tempDewpointWater temp
2015-Jan-29 05:33N 42°06' E 004°30'2120.8
2015-Jan-29 04:34N 41°58' E 004°05'2121.3
2015-Jan-29 03:34N 41°48' E 003°40'2120.5
2015-Jan-29 02:33N 41°39' E 003°15'2121.1
2015-Jan-29 01:33N 41°30' E 002°49'2221.1
2015-Jan-29 00:32N 41°21' E 002°23'9 1.9
2015-Jan-28 19:29N 41°22' E 002°11'1213.1
2015-Jan-28 18:33N 41°10' E 002°07'2120.6
2015-Jan-28 17:33N 40°51' E 001°55'2121.1
2015-Jan-28 16:33N 40°33' E 001°43'2121.1
2015-Jan-28 15:33N 40°14' E 001°30'2120.9
2015-Jan-28 14:34N 39°55' E 001°18'12420.6
2015-Jan-28 08:31N 38°05' E 000°02'2020.4
2015-Jan-28 07:33N 37°49' W 000°12'2019.6
2015-Jan-28 06:33N 37°34' W 000°27'1919.5
2015-Jan-28 05:33N 37°19' W 000°44'2020.0
2015-Jan-28 04:33N 37°06' W 001°03'21120.5
2015-Jan-27 18:16N 35°58' W 005°11'15 1.9
2015-Jan-27 10:09N 35°56' W 005°30'712.1
2015-Jan-27 09:33N 36°00' W 005°22'22515.0
2015-Jan-26 18:33N 37°17' W 000°59'1716.6
2015-Jan-26 17:33N 37°28' W 000°43'1716.5
2015-Jan-26 16:33N 37°40' W 000°29'1616.4
2015-Jan-26 15:33N 37°54' W 000°17'13416.0
2015-Jan-26 07:09N 39°55' E 000°57'1016.0
2015-Jan-26 06:33N 40°03' E 001°03'1616.1
2015-Jan-26 05:33N 40°17' E 001°15'1616.2
2015-Jan-26 04:34N 40°30' E 001°27'1615.5
2015-Jan-26 03:33N 40°42' E 001°39'1615.4
2015-Jan-26 02:33N 40°55' E 001°51'1615.8
2015-Jan-26 01:33N 41°08' E 002°03'80 9.5
2015-Jan-25 17:06N 42°05' E 003°19'1119.7
2015-Jan-25 16:33N 42°15' E 003°21'3716.4
2015-Jan-25 14:18N 42°48' E 003°45'5417.7
2015-Jan-25 11:14N 42°56' E 004°59'5919.5
2015-Jan-25 08:12N 42°56' E 006°19'1320.4
2015-Jan-25 07:33N 42°59' E 006°37'2020.3
2015-Jan-25 06:33N 43°05' E 007°03'2320.3
2015-Jan-25 05:25N 43°13' E 007°33'4220.3
2015-Jan-25 03:22N 43°30' E 008°25'1619.9
2015-Jan-25 02:33N 43°30' E 008°47'2020.5
2015-Jan-25 01:33N 43°30' E 009°15'2020.5
2015-Jan-25 00:33N 43°31' E 009°44'2020.2
2015-Jan-24 23:33N 43°30' E 010°11'7 6.6
2015-Jan-24 22:33N 43°35' E 010°18'0 0.0
2015-Jan-24 21:33N 43°35' E 010°18'0 0.0
2015-Jan-24 20:33N 43°35' E 010°18'0 0.0
2015-Jan-24 19:33N 43°35' E 010°18'0 0.0
2015-Jan-24 18:33N 43°35' E 010°18'0 0.0
2015-Jan-24 17:33N 43°35' E 010°18'0 0.0
2015-Jan-24 16:33N 43°35' E 010°18'0 0.0
2015-Jan-24 15:33N 43°35' E 010°18'0 0.0
2015-Jan-24 14:33N 43°35' E 010°18'0 0.0
2015-Jan-24 13:33N 43°35' E 010°18'0 0.0
2015-Jan-24 12:33N 43°35' E 010°18'0 0.0
2015-Jan-24 11:33N 43°35' E 010°18'0 0.0
2015-Jan-24 10:33N 43°35' E 010°18'0 0.0
2015-Jan-24 09:30N 43°35' E 010°18'0 0.0
2015-Jan-24 08:33N 43°35' E 010°18'0 0.0
2015-Jan-24 07:33N 43°35' E 010°18'0 0.0
2015-Jan-24 06:33N 43°35' E 010°18'0 0.0
2015-Jan-24 05:33N 43°35' E 010°18'0 0.0
2015-Jan-24 04:33N 43°35' E 010°18'0 0.0
2015-Jan-24 03:31N 43°35' E 010°18'0 0.0
2015-Jan-24 02:32N 43°35' E 010°18'0 0.0
2015-Jan-24 01:32N 43°35' E 010°18'0 0.0
2015-Jan-24 00:31N 43°35' E 010°18'0 0.0
2015-Jan-23 23:31N 43°35' E 010°18'0 0.0
2015-Jan-23 22:32N 43°35' E 010°18'0 0.0
2015-Jan-23 21:32N 43°35' E 010°18'0 0.0
2015-Jan-23 20:32N 43°35' E 010°18'0 0.0
2015-Jan-23 19:32N 43°35' E 010°18'0 0.0
2015-Jan-23 18:32N 43°35' E 010°18'0 0.0
2015-Jan-23 17:32N 43°35' E 010°18'0 0.0
2015-Jan-23 16:32N 43°35' E 010°18'0 0.0
2015-Jan-23 15:32N 43°35' E 010°18'0 0.0
2015-Jan-23 14:32N 43°35' E 010°18'0 0.0
2015-Jan-23 13:32N 43°35' E 010°18'0 0.0
2015-Jan-23 12:32N 43°35' E 010°18'0 0.0
2015-Jan-23 11:32N 43°35' E 010°18'0 0.0
2015-Jan-23 10:32N 43°35' E 010°18'0 0.0
2015-Jan-23 09:32N 43°35' E 010°18'0 0.0
2015-Jan-23 08:32N 43°35' E 010°18'0 0.0
2015-Jan-23 07:32N 43°35' E 010°18'0 0.0
2015-Jan-23 06:34N 43°35' E 010°18'0 0.0
2015-Jan-23 05:33N 43°35' E 010°18'0 0.0
2015-Jan-23 04:33N 43°35' E 010°18'0 0.0
2015-Jan-23 03:33N 43°35' E 010°18'0 0.0
2015-Jan-23 02:33N 43°35' E 010°18'0 0.0
2015-Jan-23 01:33N 43°35' E 010°18'0 0.0
2015-Jan-23 00:34N 43°35' E 010°18'0 0.0
2015-Jan-22 23:34N 43°35' E 010°18'0 0.0
2015-Jan-22 22:34N 43°35' E 010°18'4 4.0
2015-Jan-22 21:34N 43°31' E 010°15'1313.4
2015-Jan-22 20:34N 43°23' E 010°01'1919.3
2015-Jan-22 19:33N 43°14' E 009°37'2019.8
2015-Jan-22 18:34N 43°08' E 009°12'9719.3
2015-Jan-22 13:34N 42°36' E 007°07'8119.9
2015-Jan-22 09:29N 42°08' E 005°24'1919.3
2015-Jan-22 08:30N 42°02' E 005°00'1919.8
2015-Jan-22 07:33N 41°55' E 004°36'2019.9
2015-Jan-22 06:32N 41°48' E 004°11'2020.8
2015-Jan-22 05:33N 41°41' E 003°45'1919.5
2015-Jan-22 04:33N 41°35' E 003°21'1919.2
2015-Jan-22 03:33N 41°29' E 002°56'2019.6
2015-Jan-22 02:33N 41°22' E 002°32'1616.5
2015-Jan-22 01:33N 41°19' E 002°10'11 1.8
2015-Jan-21 19:33N 41°09' E 002°07'2120.6
2015-Jan-21 18:33N 40°50' E 001°55'2121.0
2015-Jan-21 17:33N 40°31' E 001°42'2120.9
2015-Jan-21 16:33N 40°13' E 001°30'2120.9
2015-Jan-21 15:33N 39°54' E 001°18'14520.7
2015-Jan-21 08:33N 37°47' W 000°13'2220.2
2015-Jan-21 07:29N 37°30' W 000°29'1920.2
2015-Jan-21 06:33N 37°18' W 000°48'22519.7
2015-Jan-20 19:07N 35°59' W 005°11'1323.6
2015-Jan-20 18:34N 35°57' W 005°27'2 0.3
2015-Jan-20 10:21N 35°56' W 005°29'22514.0
2015-Jan-19 18:16N 37°11' W 001°05'1216.2
2015-Jan-19 17:33N 37°18' W 000°54'1616.0
2015-Jan-19 16:31N 37°30' W 000°39'1616.1
2015-Jan-19 15:33N 37°42' W 000°27'1716.0
2015-Jan-19 14:28N 37°57' W 000°15'12615.9
2015-Jan-19 06:33N 39°46' E 001°06'1616.2
2015-Jan-19 05:33N 40°00' E 001°16'  
Track history (hours):
 
Tides and Currents Weather Stations Pressure Air Temp Water Temp Dewpoint Dewpoint Depression Visibility Wind Speed Wind Dir Waves Ship Positions

Ikarus

Last reported at 2015-Jan-29 05:33 UTC. Time now 2015-Jan-29 06:27 UTC.
Position N 42°06' E 004°30'.

Length 200 m; draft 6.7 m.

Type: Ship. MMSI: 239513000.

Date/timePositionNaut miles runAvg speedWind from/ knotsBaromVisibWave heightAir tempDewpointWater temp
2015-Jan-29 05:33N 42°06' E 004°30'2120.8
2015-Jan-29 04:34N 41°58' E 004°05'2121.3
2015-Jan-29 03:34N 41°48' E 003°40'2120.5
2015-Jan-29 02:33N 41°39' E 003°15'2121.1
2015-Jan-29 01:33N 41°30' E 002°49'2221.1
2015-Jan-29 00:32N 41°21' E 002°23'9 1.9
2015-Jan-28 19:29N 41°22' E 002°11'1213.1
2015-Jan-28 18:33N 41°10' E 002°07'2120.6
2015-Jan-28 17:33N 40°51' E 001°55'2121.1
2015-Jan-28 16:33N 40°33' E 001°43'2121.1
2015-Jan-28 15:33N 40°14' E 001°30'2120.9
2015-Jan-28 14:34N 39°55' E 001°18'12420.6
2015-Jan-28 08:31N 38°05' E 000°02'2020.4
2015-Jan-28 07:33N 37°49' W 000°12'2019.6
2015-Jan-28 06:33N 37°34' W 000°27'1919.5
2015-Jan-28 05:33N 37°19' W 000°44'2020.0
2015-Jan-28 04:33N 37°06' W 001°03'21120.5
2015-Jan-27 18:16N 35°58' W 005°11'15 1.9
2015-Jan-27 10:09N 35°56' W 005°30'712.1
2015-Jan-27 09:33N 36°00' W 005°22'22515.0
2015-Jan-26 18:33N 37°17' W 000°59'1716.6
2015-Jan-26 17:33N 37°28' W 000°43'1716.5
2015-Jan-26 16:33N 37°40' W 000°29'1616.4
2015-Jan-26 15:33N 37°54' W 000°17'13416.0
2015-Jan-26 07:09N 39°55' E 000°57'1016.0
2015-Jan-26 06:33N 40°03' E 001°03'1616.1
2015-Jan-26 05:33N 40°17' E 001°15'1616.2
2015-Jan-26 04:34N 40°30' E 001°27'1615.5
2015-Jan-26 03:33N 40°42' E 001°39'1615.4
2015-Jan-26 02:33N 40°55' E 001°51'1615.8
2015-Jan-26 01:33N 41°08' E 002°03'80 9.5
2015-Jan-25 17:06N 42°05' E 003°19'1119.7
2015-Jan-25 16:33N 42°15' E 003°21'3716.4
2015-Jan-25 14:18N 42°48' E 003°45'5417.7
2015-Jan-25 11:14N 42°56' E 004°59'5919.5
2015-Jan-25 08:12N 42°56' E 006°19'1320.4
2015-Jan-25 07:33N 42°59' E 006°37'2020.3
2015-Jan-25 06:33N 43°05' E 007°03'2320.3
2015-Jan-25 05:25N 43°13' E 007°33'4220.3
2015-Jan-25 03:22N 43°30' E 008°25'1619.9
2015-Jan-25 02:33N 43°30' E 008°47'2020.5
2015-Jan-25 01:33N 43°30' E 009°15'2020.5
2015-Jan-25 00:33N 43°31' E 009°44'2020.2
2015-Jan-24 23:33N 43°30' E 010°11'7 6.6
2015-Jan-24 22:33N 43°35' E 010°18'0 0.0
2015-Jan-24 21:33N 43°35' E 010°18'0 0.0
2015-Jan-24 20:33N 43°35' E 010°18'0 0.0
2015-Jan-24 19:33N 43°35' E 010°18'0 0.0
2015-Jan-24 18:33N 43°35' E 010°18'0 0.0
2015-Jan-24 17:33N 43°35' E 010°18'0 0.0
2015-Jan-24 16:33N 43°35' E 010°18'0 0.0
2015-Jan-24 15:33N 43°35' E 010°18'0 0.0
2015-Jan-24 14:33N 43°35' E 010°18'0 0.0
2015-Jan-24 13:33N 43°35' E 010°18'0 0.0
2015-Jan-24 12:33N 43°35' E 010°18'0 0.0
2015-Jan-24 11:33N 43°35' E 010°18'0 0.0
2015-Jan-24 10:33N 43°35' E 010°18'0 0.0
2015-Jan-24 09:30N 43°35' E 010°18'0 0.0
2015-Jan-24 08:33N 43°35' E 010°18'0 0.0
2015-Jan-24 07:33N 43°35' E 010°18'0 0.0
2015-Jan-24 06:33N 43°35' E 010°18'0 0.0
2015-Jan-24 05:33N 43°35' E 010°18'0 0.0
2015-Jan-24 04:33N 43°35' E 010°18'0 0.0
2015-Jan-24 03:31N 43°35' E 010°18'0 0.0
2015-Jan-24 02:32N 43°35' E 010°18'0 0.0
2015-Jan-24 01:32N 43°35' E 010°18'0 0.0
2015-Jan-24 00:31N 43°35' E 010°18'0 0.0
2015-Jan-23 23:31N 43°35' E 010°18'0 0.0
2015-Jan-23 22:32N 43°35' E 010°18'0 0.0
2015-Jan-23 21:32N 43°35' E 010°18'0 0.0
2015-Jan-23 20:32N 43°35' E 010°18'0 0.0
2015-Jan-23 19:32N 43°35' E 010°18'0 0.0
2015-Jan-23 18:32N 43°35' E 010°18'0 0.0
2015-Jan-23 17:32N 43°35' E 010°18'0 0.0
2015-Jan-23 16:32N 43°35' E 010°18'0 0.0
2015-Jan-23 15:32N 43°35' E 010°18'0 0.0
2015-Jan-23 14:32N 43°35' E 010°18'0 0.0
2015-Jan-23 13:32N 43°35' E 010°18'0 0.0
2015-Jan-23 12:32N 43°35' E 010°18'0 0.0
2015-Jan-23 11:32N 43°35' E 010°18'0 0.0
2015-Jan-23 10:32N 43°35' E 010°18'0 0.0
2015-Jan-23 09:32N 43°35' E 010°18'0 0.0
2015-Jan-23 08:32N 43°35' E 010°18'0 0.0
2015-Jan-23 07:32N 43°35' E 010°18'0 0.0
2015-Jan-23 06:34N 43°35' E 010°18'0 0.0
2015-Jan-23 05:33N 43°35' E 010°18'0 0.0
2015-Jan-23 04:33N 43°35' E 010°18'0 0.0
2015-Jan-23 03:33N 43°35' E 010°18'0 0.0
2015-Jan-23 02:33N 43°35' E 010°18'0 0.0
2015-Jan-23 01:33N 43°35' E 010°18'0 0.0
2015-Jan-23 00:34N 43°35' E 010°18'0 0.0
2015-Jan-22 23:34N 43°35' E 010°18'0 0.0
2015-Jan-22 22:34N 43°35' E 010°18'4 4.0
2015-Jan-22 21:34N 43°31' E 010°15'1313.4
2015-Jan-22 20:34N 43°23' E 010°01'1919.3
2015-Jan-22 19:33N 43°14' E 009°37'2019.8
2015-Jan-22 18:34N 43°08' E 009°12'9719.3
2015-Jan-22 13:34N 42°36' E 007°07'8119.9
2015-Jan-22 09:29N 42°08' E 005°24'1919.3
2015-Jan-22 08:30N 42°02' E 005°00'1919.8
2015-Jan-22 07:33N 41°55' E 004°36'2019.9
2015-Jan-22 06:32N 41°48' E 004°11'2020.8
2015-Jan-22 05:33N 41°41' E 003°45'1919.5
2015-Jan-22 04:33N 41°35' E 003°21'1919.2
2015-Jan-22 03:33N 41°29' E 002°56'2019.6
2015-Jan-22 02:33N 41°22' E 002°32'1616.5
2015-Jan-22 01:33N 41°19' E 002°10'11 1.8
2015-Jan-21 19:33N 41°09' E 002°07'2120.6
2015-Jan-21 18:33N 40°50' E 001°55'2121.0
2015-Jan-21 17:33N 40°31' E 001°42'2120.9
2015-Jan-21 16:33N 40°13' E 001°30'2120.9
2015-Jan-21 15:33N 39°54' E 001°18'14520.7
2015-Jan-21 08:33N 37°47' W 000°13'2220.2
2015-Jan-21 07:29N 37°30' W 000°29'1920.2
2015-Jan-21 06:33N 37°18' W 000°48'22519.7
2015-Jan-20 19:07N 35°59' W 005°11'1323.6
2015-Jan-20 18:34N 35°57' W 005°27'2 0.3
2015-Jan-20 10:21N 35°56' W 005°29'22514.0
2015-Jan-19 18:16N 37°11' W 001°05'1216.2
2015-Jan-19 17:33N 37°18' W 000°54'1616.0
2015-Jan-19 16:31N 37°30' W 000°39'1616.1
2015-Jan-19 15:33N 37°42' W 000°27'1716.0
2015-Jan-19 14:28N 37°57' W 000°15'12615.9
2015-Jan-19 06:33N 39°46' E 001°06'1616.2
2015-Jan-19 05:33N 40°00' E 001°16'  

Dump ship's entire track history